KHTL

Details ICAO KHTL (HTL)
Name ROSCOMMON CO
Region United States
Timezone America/Detroit (UTC-5.0)
Plans Departing 4
Arriving 0
Stats Elevation 1,150 ft / 351 m (AMSL)
Location 44.359274° -84.673189°
Runways 2
Magnetic Variation 6.747° W
Sunrise 2017-12-11 13:06:13 UTC / 2017-12-11 08:06:13 Local
Sunset 2017-12-11 22:00:48 UTC / 2017-12-11 17:00:48 Local
Advertisement - Login to hide

Runways

ID Width Length Bearing (true) Bearing (mag) Surface Threshold Offset Overrun Length
09 75 ft / 23 m 3,987 ft / 1,215 m 88.85° 95.60° Asphalt 0 ft / 0 m 0 ft / 0 m
18 100 ft / 30 m 2,203 ft / 671 m 180.00° 186.75° Grass 200 ft / 61 m 0 ft / 0 m
27 75 ft / 23 m 3,987 ft / 1,215 m 268.86° 275.61° Asphalt 0 ft / 0 m 0 ft / 0 m
36 100 ft / 30 m 2,203 ft / 671 m 0.00° 6.75° Grass 200 ft / 61 m 0 ft / 0 m

Map

Weather


0- 5 10 15 20 25 30 35+ Temperature / ° C

Clouds and Precipitation
Forecast for 2017-12-12 06:00 UTC. Updated 2 hours ago

Ground ~20,000 ft ~40,000 ft Winds

METAR

KHTL 120453Z AUTO 31013KT 9SM SCT017 BKN026 OVC060 M04/M06 A2967 RMK AO2 SNE42 SLP066 P0001 T10391061 410331089

TAF

Not found

Frequencies

Unicom 122.80 MHz CTAF/UNICOM
Warning: Do not use this data for real-world aviation or navigation. No guarantee of current accuracy is given.